createdAt,value
2022-11-24T00:00:30.572Z,2.23
2022-11-24T00:02:57.202Z,3.13
2022-11-24T00:05:23.815Z,2.17
2022-11-24T00:07:50.389Z,2.20
2022-11-24T00:10:17.356Z,2.20
2022-11-24T00:12:43.867Z,2.30
2022-11-24T00:15:10.547Z,2.00
2022-11-24T00:17:37.079Z,2.80
2022-11-24T00:20:04.326Z,2.63
2022-11-24T00:22:30.840Z,1.90
2022-11-24T00:24:57.424Z,2.10
2022-11-24T00:27:23.946Z,2.80
2022-11-24T00:29:50.494Z,2.80
2022-11-24T00:32:17.047Z,2.27
2022-11-24T00:34:43.599Z,2.77
2022-11-24T00:37:10.105Z,2.60
2022-11-24T00:39:36.598Z,2.43
2022-11-24T00:42:03.217Z,2.23
2022-11-24T00:44:29.801Z,2.00
2022-11-24T00:46:56.415Z,1.87
2022-11-24T00:49:22.971Z,2.00
2022-11-24T00:51:49.475Z,2.47
2022-11-24T00:54:16.049Z,2.73
2022-11-24T00:56:42.641Z,2.10
2022-11-24T00:59:09.196Z,2.87
2022-11-24T01:01:36.284Z,2.57
2022-11-24T01:04:04.129Z,1.70
2022-11-24T01:06:32.616Z,1.90
2022-11-24T01:08:59.472Z,1.93
2022-11-24T01:11:54.380Z,1.67
2022-11-24T01:14:25.106Z,1.43
2022-11-24T01:16:52.283Z,2.80
2022-11-24T01:19:18.970Z,2.23
2022-11-24T01:21:46.022Z,2.07
2022-11-24T01:24:13.067Z,1.73
2022-11-24T01:26:39.652Z,1.97
2022-11-24T01:29:06.161Z,2.20
2022-11-24T01:31:36.900Z,2.63
2022-11-24T01:34:03.690Z,2.13
2022-11-24T01:36:30.188Z,2.63
2022-11-24T01:38:56.690Z,2.13
2022-11-24T01:41:25.363Z,2.37
2022-11-24T01:43:54.045Z,1.90
2022-11-24T01:46:33.818Z,2.83
2022-11-24T01:49:03.458Z,2.40
2022-11-24T01:51:34.437Z,2.53
2022-11-24T01:54:08.850Z,1.60
2022-11-24T01:56:39.170Z,2.27
2022-11-24T01:59:08.959Z,2.27
2022-11-24T02:01:35.664Z,2.97
2022-11-24T02:04:07.838Z,2.40
2022-11-24T02:06:36.972Z,2.10
2022-11-24T02:09:24.080Z,1.47
2022-11-24T02:11:53.373Z,1.90
2022-11-24T02:14:22.296Z,2.00
2022-11-24T02:16:50.387Z,2.07
2022-11-24T02:19:34.825Z,1.70
2022-11-24T02:22:03.654Z,1.90
2022-11-24T02:24:41.605Z,1.37
2022-11-24T02:27:10.005Z,1.20
2022-11-24T02:29:37.377Z,1.83
2022-11-24T02:32:07.276Z,1.73
2022-11-24T02:34:34.359Z,1.80
2022-11-24T02:37:01.086Z,2.10
2022-11-24T02:39:27.614Z,1.47
2022-11-24T02:42:00.701Z,1.77
2022-11-24T02:44:32.963Z,2.40
2022-11-24T02:47:10.669Z,1.40
2022-11-24T02:49:37.427Z,1.87
2022-11-24T02:52:04.982Z,1.77
2022-11-24T02:54:32.249Z,1.47
2022-11-24T02:56:59.081Z,1.37
2022-11-24T02:59:25.916Z,1.60
2022-11-24T03:01:52.561Z,1.53
2022-11-24T03:04:19.138Z,1.13
2022-11-24T03:06:45.643Z,1.50
2022-11-24T03:09:12.170Z,1.30
2022-11-24T03:11:39.335Z,1.60
2022-11-24T03:14:06.367Z,1.33
2022-11-24T03:16:34.825Z,1.40
2022-11-24T03:19:01.650Z,1.60
2022-11-24T03:21:28.361Z,1.60
2022-11-24T03:23:54.926Z,2.73
2022-11-24T03:26:22.978Z,1.13
2022-11-24T03:28:49.505Z,1.13
2022-11-24T03:31:16.338Z,1.10
2022-11-24T03:33:42.979Z,1.00
2022-11-24T03:36:09.790Z,1.67
2022-11-24T03:38:36.368Z,1.80
2022-11-24T03:41:02.951Z,1.93
2022-11-24T03:43:30.027Z,1.37
2022-11-24T03:45:56.628Z,1.03
2022-11-24T03:48:23.350Z,1.33
2022-11-24T03:50:55.149Z,1.70
2022-11-24T03:53:22.870Z,1.20
2022-11-24T03:55:49.395Z,1.43
2022-11-24T03:58:15.926Z,1.43
2022-11-24T04:00:42.451Z,1.27
2022-11-24T04:03:09.019Z,1.20
2022-11-24T04:05:36.791Z,1.33
2022-11-24T04:08:05.354Z,1.00
2022-11-24T04:10:34.116Z,1.20
2022-11-24T04:13:00.613Z,1.70
2022-11-24T04:15:27.229Z,1.77
2022-11-24T04:17:55.338Z,1.40
2022-11-24T04:20:22.216Z,1.10
2022-11-24T04:22:51.723Z,1.30
2022-11-24T04:25:18.645Z,1.13
2022-11-24T04:27:45.797Z,1.63
2022-11-24T04:30:12.516Z,1.50
2022-11-24T04:32:39.058Z,1.23
2022-11-24T04:35:06.005Z,1.23
2022-11-24T04:37:32.506Z,1.27
2022-11-24T04:39:59.174Z,1.57
2022-11-24T04:42:25.877Z,1.10
2022-11-24T04:44:52.399Z,1.83
2022-11-24T04:47:21.618Z,1.17
2022-11-24T04:49:49.125Z,1.83
2022-11-24T04:52:17.353Z,1.67
2022-11-24T04:54:43.995Z,1.77
2022-11-24T04:57:15.839Z,1.40
2022-11-24T04:59:42.370Z,1.53
2022-11-24T05:02:10.065Z,1.67
2022-11-24T05:04:37.072Z,1.40
2022-11-24T05:07:04.717Z,1.90
2022-11-24T05:09:54.982Z,1.80
2022-11-24T05:12:18.024Z,1.67
2022-11-24T05:14:44.561Z,1.67
2022-11-24T05:17:11.134Z,1.30
2022-11-24T05:19:37.731Z,1.90
2022-11-24T05:22:04.350Z,1.80
2022-11-24T05:24:30.915Z,1.83
2022-11-24T05:26:57.454Z,2.37
2022-11-24T05:29:24.018Z,2.13
2022-11-24T05:31:50.538Z,1.93
2022-11-24T05:34:18.314Z,1.70
2022-11-24T05:36:53.614Z,2.30
2022-11-24T05:39:20.851Z,2.57
2022-11-24T05:41:47.463Z,2.00
2022-11-24T05:44:14.038Z,2.40
2022-11-24T05:46:40.660Z,2.97
2022-11-24T05:49:07.190Z,1.93
2022-11-24T05:51:33.733Z,1.67
2022-11-24T05:54:00.219Z,1.70
2022-11-24T05:56:26.749Z,2.20
2022-11-24T05:58:53.306Z,2.13
2022-11-24T06:01:19.866Z,2.27
2022-11-24T06:03:46.383Z,2.30
2022-11-24T06:06:12.948Z,2.03
2022-11-24T06:08:39.481Z,2.10
2022-11-24T06:11:18.046Z,2.10
2022-11-24T06:13:46.113Z,2.40
2022-11-24T06:16:13.151Z,2.23
2022-11-24T06:18:39.788Z,2.40
2022-11-24T06:21:11.117Z,2.53
2022-11-24T06:23:38.751Z,3.20
2022-11-24T06:26:05.454Z,2.73
2022-11-24T06:28:32.247Z,3.00
2022-11-24T06:31:03.189Z,3.23
2022-11-24T06:33:34.644Z,2.50
2022-11-24T06:36:13.886Z,3.43
2022-11-24T06:38:40.459Z,3.40
2022-11-24T06:41:11.471Z,2.60
2022-11-24T06:43:38.050Z,2.03
2022-11-24T06:46:04.884Z,2.70
2022-11-24T06:48:31.860Z,2.30
2022-11-24T06:50:59.877Z,3.47
2022-11-24T06:53:27.128Z,2.83
2022-11-24T06:55:53.655Z,2.53
2022-11-24T06:58:20.200Z,2.90
2022-11-24T07:00:46.812Z,2.90
2022-11-24T07:03:16.382Z,3.00
2022-11-24T07:05:43.955Z,2.30
2022-11-24T07:08:14.695Z,3.17
2022-11-24T07:10:44.223Z,2.43
2022-11-24T07:13:10.820Z,3.30
2022-11-24T07:15:37.422Z,2.40
2022-11-24T07:18:04.002Z,2.37
2022-11-24T07:20:30.661Z,3.00
2022-11-24T07:22:57.922Z,2.47
2022-11-24T07:25:25.583Z,2.47
2022-11-24T07:27:59.274Z,2.90
2022-11-24T07:30:27.434Z,3.57
2022-11-24T07:33:03.214Z,2.83
2022-11-24T07:35:30.528Z,3.03
2022-11-24T07:37:58.291Z,3.30
2022-11-24T07:40:26.671Z,3.33
2022-11-24T07:42:54.215Z,2.07
2022-11-24T07:45:25.781Z,2.40
2022-11-24T07:47:52.350Z,3.13
2022-11-24T07:50:19.004Z,3.50
2022-11-24T07:52:45.533Z,2.20
2022-11-24T07:55:12.110Z,2.50
2022-11-24T07:57:38.703Z,2.57
2022-11-24T08:00:06.022Z,2.57
2022-11-24T08:02:33.670Z,2.83
2022-11-24T08:05:00.199Z,7.67
2022-11-24T08:07:26.805Z,4.93
2022-11-24T08:09:53.468Z,3.13
2022-11-24T08:12:23.136Z,2.77
2022-11-24T08:14:50.446Z,2.57
2022-11-24T08:17:18.004Z,2.20
2022-11-24T08:19:45.013Z,2.73
2022-11-24T08:22:11.653Z,2.80
2022-11-24T08:24:38.430Z,2.20
2022-11-24T08:27:05.234Z,1.90
2022-11-24T08:29:32.060Z,2.57
2022-11-24T08:31:58.755Z,1.80
2022-11-24T08:34:28.341Z,2.37
2022-11-24T08:36:54.999Z,2.40
2022-11-24T08:39:21.531Z,2.13
2022-11-24T08:41:48.324Z,2.73
2022-11-24T08:44:18.234Z,2.67
2022-11-24T08:46:45.249Z,2.57
2022-11-24T08:49:14.508Z,2.77
2022-11-24T08:51:41.745Z,2.30
2022-11-24T08:54:10.327Z,2.03
2022-11-24T08:56:37.314Z,2.00
2022-11-24T08:59:03.931Z,2.43
2022-11-24T09:01:31.399Z,3.13
2022-11-24T09:03:58.565Z,2.93
2022-11-24T09:06:27.581Z,3.27
2022-11-24T09:08:55.453Z,2.43
2022-11-24T09:11:23.021Z,1.90
2022-11-24T09:13:50.096Z,1.87
2022-11-24T09:16:19.644Z,2.50
2022-11-24T09:18:47.251Z,2.13
2022-11-24T09:21:16.504Z,2.17
2022-11-24T09:23:44.750Z,2.13
2022-11-24T09:26:14.410Z,2.10
2022-11-24T09:28:41.551Z,2.30
2022-11-24T09:31:11.471Z,1.80
2022-11-24T09:33:39.202Z,1.40
2022-11-24T09:36:06.323Z,2.00
2022-11-24T09:38:33.591Z,1.77
2022-11-24T09:41:18.196Z,2.23
2022-11-24T09:44:09.802Z,2.03
2022-11-24T09:46:51.567Z,1.80
2022-11-24T09:49:27.587Z,2.90
2022-11-24T09:51:56.239Z,1.87
2022-11-24T09:54:29.855Z,1.43
2022-11-24T09:57:00.889Z,1.30
2022-11-24T09:59:29.702Z,1.60
2022-11-24T10:01:56.688Z,1.90
2022-11-24T10:04:39.294Z,2.30
2022-11-24T10:07:12.043Z,2.20
2022-11-24T10:09:57.639Z,2.27
2022-11-24T10:13:15.303Z,2.90
2022-11-24T10:15:54.000Z,2.37
2022-11-24T10:18:35.564Z,1.80
2022-11-24T10:21:31.505Z,1.67
2022-11-24T10:24:19.731Z,1.60
2022-11-24T10:27:00.802Z,1.63
2022-11-24T10:29:37.348Z,1.23
2022-11-24T10:32:13.257Z,1.70
2022-11-24T10:34:45.472Z,1.90
2022-11-24T10:37:15.920Z,1.50
2022-11-24T10:40:06.268Z,1.20
2022-11-24T10:42:38.184Z,1.37
2022-11-24T10:45:17.537Z,1.60
2022-11-24T10:47:45.172Z,1.20
2022-11-24T10:50:31.274Z,1.77
2022-11-24T10:53:22.564Z,1.23
2022-11-24T10:55:55.334Z,2.20
2022-11-24T10:58:39.008Z,2.17
2022-11-24T11:01:14.600Z,1.90
2022-11-24T11:03:53.826Z,2.00
2022-11-24T11:06:31.378Z,1.70
2022-11-24T11:09:07.431Z,2.23
2022-11-24T11:11:35.851Z,1.30
2022-11-24T11:14:04.946Z,1.60
2022-11-24T11:16:43.523Z,1.60
2022-11-24T11:19:54.274Z,1.90
2022-11-24T11:22:31.592Z,1.70
2022-11-24T11:25:22.110Z,1.53
2022-11-24T11:27:49.059Z,2.23
2022-11-24T11:35:49.298Z,1.73
2022-11-24T11:38:15.870Z,1.83
2022-11-24T11:40:43.964Z,1.70
2022-11-24T11:43:34.571Z,1.77
2022-11-24T11:46:12.194Z,1.37
2022-11-24T11:48:44.067Z,1.43
2022-11-24T11:51:29.813Z,1.57
2022-11-24T11:54:30.426Z,1.67
2022-11-24T11:57:07.890Z,1.80
2022-11-24T11:59:59.027Z,1.50
2022-11-24T12:02:53.616Z,1.77
2022-11-24T12:05:26.581Z,1.90
2022-11-24T12:08:20.491Z,2.60
2022-11-24T12:11:06.141Z,2.00
2022-11-24T12:13:52.688Z,2.20
2022-11-24T12:16:27.677Z,1.77
2022-11-24T12:18:58.411Z,1.70
2022-11-24T12:21:31.372Z,1.60
2022-11-24T12:24:50.115Z,1.80
2022-11-24T12:27:52.541Z,1.40
2022-11-24T12:30:22.020Z,1.40
2022-11-24T12:32:48.484Z,1.63
2022-11-24T12:35:33.549Z,1.70
2022-11-24T12:38:33.906Z,1.80
2022-11-24T12:41:45.761Z,2.50
2022-11-24T12:44:40.374Z,1.60
2022-11-24T12:47:18.585Z,1.13
2022-11-24T12:50:27.971Z,1.27
2022-11-24T12:53:03.889Z,1.13
2022-11-24T12:55:33.747Z,1.77
2022-11-24T12:58:50.202Z,1.30
2022-11-24T13:01:32.260Z,1.97
2022-11-24T13:04:10.577Z,1.83
2022-11-24T13:07:01.330Z,1.40
2022-11-24T13:09:27.924Z,1.33
2022-11-24T13:12:14.195Z,1.40
2022-11-24T13:14:46.042Z,1.40
2022-11-24T13:17:47.622Z,1.37
2022-11-24T13:20:19.665Z,1.70
2022-11-24T13:22:55.382Z,1.53
2022-11-24T13:25:28.658Z,1.47
2022-11-24T13:28:00.147Z,2.10
2022-11-24T13:30:35.805Z,1.90
2022-11-24T13:33:02.355Z,2.13
2022-11-24T13:35:29.786Z,1.50
2022-11-24T13:37:56.460Z,1.87
2022-11-24T13:40:23.099Z,2.03
2022-11-24T13:43:01.513Z,1.80
2022-11-24T13:45:44.983Z,1.30
2022-11-24T13:48:21.138Z,1.67
2022-11-24T13:50:51.188Z,1.60
2022-11-24T13:53:45.851Z,1.60
2022-11-24T13:56:12.335Z,1.60
2022-11-24T13:58:39.943Z,2.00
2022-11-24T14:01:21.812Z,2.00
2022-11-24T14:04:33.456Z,2.60
2022-11-24T14:07:12.065Z,2.33
2022-11-24T14:09:50.136Z,2.07
2022-11-24T14:12:25.356Z,1.77
2022-11-24T14:14:55.675Z,2.53
2022-11-24T14:17:23.550Z,1.67
2022-11-24T14:19:55.436Z,1.73
2022-11-24T14:22:34.673Z,1.43
2022-11-24T14:25:02.897Z,1.13
2022-11-24T14:27:40.032Z,1.80
2022-11-24T14:30:09.481Z,1.77
2022-11-24T14:32:37.803Z,1.83
2022-11-24T14:35:25.486Z,1.47
2022-11-24T14:37:52.616Z,1.30
2022-11-24T14:40:49.049Z,2.33
2022-11-24T14:43:21.893Z,1.57
2022-11-24T14:45:55.102Z,1.60
2022-11-24T14:48:33.425Z,1.50
2022-11-24T14:51:10.561Z,1.30
2022-11-24T14:53:46.920Z,1.60
2022-11-24T14:56:34.453Z,1.97
2022-11-24T14:59:01.808Z,1.63
2022-11-24T15:01:34.502Z,1.63
2022-11-24T15:05:02.007Z,1.60
2022-11-24T15:07:27.593Z,1.60
2022-11-24T15:09:59.967Z,1.20
2022-11-24T15:12:39.094Z,1.10
2022-11-24T15:15:20.423Z,1.37
2022-11-24T15:17:49.802Z,1.80
2022-11-24T15:20:35.138Z,1.73
2022-11-24T15:23:30.160Z,1.40
2022-11-24T15:25:58.348Z,1.60
2022-11-24T15:28:26.030Z,1.97
2022-11-24T15:30:54.685Z,1.70
2022-11-24T15:33:22.627Z,1.77
2022-11-24T15:35:49.425Z,1.50
2022-11-24T15:38:16.520Z,1.27
2022-11-24T15:40:45.988Z,1.47
2022-11-24T15:43:27.592Z,1.63
2022-11-24T15:45:54.220Z,1.70
2022-11-24T15:48:20.823Z,2.00
2022-11-24T15:50:48.443Z,1.87
2022-11-24T15:53:20.222Z,2.53
2022-11-24T15:55:47.423Z,2.00
2022-11-24T15:58:14.575Z,2.10
2022-11-24T16:00:42.540Z,2.50
2022-11-24T16:03:38.765Z,2.67
2022-11-24T16:05:57.087Z,2.33
2022-11-24T16:08:23.665Z,2.17
2022-11-24T16:10:51.240Z,1.70
2022-11-24T16:13:17.776Z,1.87
2022-11-24T16:15:45.926Z,1.90
2022-11-24T16:18:14.999Z,2.23
2022-11-24T16:20:41.549Z,1.83
2022-11-24T16:23:08.097Z,2.10
2022-11-24T16:25:34.679Z,1.90
2022-11-24T16:28:01.322Z,2.60
2022-11-24T16:30:27.836Z,1.73
2022-11-24T16:32:54.365Z,2.60
2022-11-24T16:35:20.940Z,2.40
2022-11-24T16:37:49.567Z,1.90
2022-11-24T16:40:16.272Z,1.90
2022-11-24T16:42:42.866Z,2.23
2022-11-24T16:45:12.294Z,2.37
2022-11-24T16:47:41.027Z,1.90
2022-11-24T16:50:11.294Z,2.73
2022-11-24T16:52:38.481Z,2.47
2022-11-24T16:55:06.892Z,2.23
2022-11-24T16:57:33.549Z,2.37
2022-11-24T17:00:00.138Z,2.17
2022-11-24T17:02:26.830Z,2.80
2022-11-24T17:04:53.437Z,2.80
2022-11-24T17:07:20.581Z,2.60
2022-11-24T17:09:47.229Z,2.70
2022-11-24T17:12:13.734Z,2.80
2022-11-24T17:14:40.410Z,2.50
2022-11-24T17:17:06.953Z,2.70
2022-11-24T17:19:33.496Z,3.10
2022-11-24T17:22:00.134Z,2.27
2022-11-24T17:24:26.829Z,2.57
2022-11-24T17:26:53.361Z,3.47
2022-11-24T17:29:20.082Z,2.93
2022-11-24T17:31:47.524Z,3.10
2022-11-24T17:34:14.154Z,2.80
2022-11-24T17:36:41.980Z,3.40
2022-11-24T17:39:09.473Z,2.77
2022-11-24T17:41:36.118Z,2.57
2022-11-24T17:44:03.165Z,3.90
2022-11-24T17:46:30.943Z,3.07
2022-11-24T17:48:58.055Z,3.33
2022-11-24T17:51:25.951Z,3.47
2022-11-24T17:53:54.633Z,2.77
2022-11-24T17:56:23.820Z,3.90
2022-11-24T17:58:55.079Z,3.90
2022-11-24T18:01:22.666Z,3.27
2022-11-24T18:03:53.386Z,3.20
2022-11-24T18:06:21.072Z,2.83
2022-11-24T18:08:47.936Z,3.23
2022-11-24T18:11:19.894Z,2.67
2022-11-24T18:14:03.122Z,2.73
2022-11-24T18:16:32.484Z,2.60
2022-11-24T18:19:10.076Z,1.80
2022-11-24T18:21:38.899Z,2.67
2022-11-24T18:24:06.431Z,2.90
2022-11-24T18:26:32.999Z,2.27
2022-11-24T18:28:59.802Z,2.50
2022-11-24T18:31:26.712Z,2.73
2022-11-24T18:33:53.561Z,2.37
2022-11-24T18:36:29.988Z,2.03
2022-11-24T18:38:57.752Z,2.27
2022-11-24T18:41:24.342Z,2.77
2022-11-24T18:43:50.914Z,4.30
2022-11-24T18:46:18.285Z,2.83
2022-11-24T18:48:45.550Z,3.83
2022-11-24T18:51:16.095Z,3.67
2022-11-24T18:53:44.360Z,3.30
2022-11-24T18:56:16.423Z,3.70
2022-11-24T18:58:43.726Z,3.37
2022-11-24T19:01:11.801Z,3.17
2022-11-24T19:03:50.710Z,2.93
2022-11-24T19:06:20.171Z,3.00
2022-11-24T19:08:47.736Z,3.37
2022-11-24T19:11:19.685Z,3.00
2022-11-24T19:13:47.603Z,3.07
2022-11-24T19:16:15.621Z,3.10
2022-11-24T19:18:42.464Z,3.10
2022-11-24T19:21:09.457Z,2.10
2022-11-24T19:23:36.082Z,2.50
2022-11-24T19:26:04.520Z,2.10
2022-11-24T19:28:31.522Z,3.73
2022-11-24T19:31:06.776Z,4.40
2022-11-24T19:33:33.804Z,4.00
2022-11-24T19:36:02.516Z,3.50
2022-11-24T19:38:30.661Z,4.10
2022-11-24T19:41:05.839Z,4.53
2022-11-24T19:43:33.451Z,3.60
2022-11-24T19:46:19.458Z,2.50
2022-11-24T19:48:50.061Z,2.80
2022-11-24T19:51:18.822Z,3.60
2022-11-24T19:53:45.792Z,3.83
2022-11-24T19:56:13.297Z,3.30
2022-11-24T19:58:40.879Z,3.10
2022-11-24T20:01:13.271Z,2.90
2022-11-24T20:03:41.173Z,3.20
2022-11-24T20:06:09.535Z,3.90
2022-11-24T20:08:37.446Z,4.30
2022-11-24T20:11:07.183Z,3.87
2022-11-24T20:13:35.325Z,3.57
2022-11-24T20:16:26.301Z,3.53
2022-11-24T20:18:55.308Z,3.20
2022-11-24T20:21:25.592Z,3.33
2022-11-24T20:23:57.114Z,3.03
2022-11-24T20:26:25.834Z,2.80
2022-11-24T20:28:55.402Z,4.07
2022-11-24T20:31:25.054Z,3.80
2022-11-24T20:33:51.872Z,3.07
2022-11-24T20:36:24.373Z,3.30
2022-11-24T20:38:52.397Z,3.27
2022-11-24T20:41:21.705Z,3.50
2022-11-24T20:43:49.383Z,3.27
2022-11-24T20:46:22.430Z,3.83
2022-11-24T20:48:49.315Z,3.90
2022-11-24T20:51:21.588Z,2.93
2022-11-24T20:53:50.092Z,3.70
2022-11-24T20:56:25.249Z,3.30
2022-11-24T20:58:52.616Z,4.97
2022-11-24T21:01:22.632Z,4.60
2022-11-24T21:03:56.405Z,3.97
2022-11-24T21:06:23.679Z,3.63
2022-11-24T21:08:50.992Z,3.23
2022-11-24T21:11:19.056Z,3.77
2022-11-24T21:13:46.309Z,4.70
2022-11-24T21:16:34.511Z,4.10
2022-11-24T21:19:04.083Z,3.57
2022-11-24T21:21:36.004Z,3.57
2022-11-24T21:24:06.497Z,2.47
2022-11-24T21:26:36.963Z,2.60
2022-11-24T21:29:04.220Z,2.93
2022-11-24T21:31:31.059Z,2.70
2022-11-24T21:33:57.655Z,3.37
2022-11-24T21:36:26.316Z,3.60
2022-11-24T21:38:55.504Z,4.20
2022-11-24T21:41:23.667Z,4.53
2022-11-24T21:43:51.715Z,5.43
2022-11-24T21:46:18.330Z,5.10
2022-11-24T21:48:44.988Z,4.03
2022-11-24T21:51:14.337Z,3.97
2022-11-24T21:53:45.584Z,3.70
2022-11-24T21:56:14.361Z,3.30
2022-11-24T21:58:46.391Z,5.50
2022-11-24T22:01:13.877Z,4.17
2022-11-24T22:03:40.729Z,4.67
2022-11-24T22:06:07.720Z,4.53
2022-11-24T22:08:34.283Z,4.80
2022-11-24T22:11:05.892Z,4.70
2022-11-24T22:13:32.999Z,4.13
2022-11-24T22:16:05.873Z,4.67
2022-11-24T22:18:34.627Z,4.70
2022-11-24T22:21:02.813Z,4.20
2022-11-24T22:23:31.085Z,4.97
2022-11-24T22:26:05.757Z,5.80
2022-11-24T22:28:36.528Z,5.43
2022-11-24T22:31:05.375Z,5.57
2022-11-24T22:33:32.226Z,5.20
2022-11-24T22:36:00.361Z,4.57
2022-11-24T22:38:28.517Z,5.60
2022-11-24T22:40:55.244Z,4.93
2022-11-24T22:43:23.207Z,4.67
2022-11-24T22:45:49.960Z,5.50
2022-11-24T22:48:16.639Z,4.70
2022-11-24T22:50:43.162Z,4.50
2022-11-24T22:53:09.809Z,4.03
2022-11-24T22:55:36.485Z,4.77
2022-11-24T22:58:03.084Z,3.97
2022-11-24T23:00:29.723Z,3.57
2022-11-24T23:02:56.393Z,4.10
2022-11-24T23:05:22.968Z,4.50
2022-11-24T23:07:49.697Z,3.90
2022-11-24T23:10:16.378Z,4.70
2022-11-24T23:12:42.898Z,3.43
2022-11-24T23:15:09.697Z,4.23
2022-11-24T23:17:36.274Z,3.60
2022-11-24T23:20:02.793Z,3.93
2022-11-24T23:22:29.497Z,3.77
2022-11-24T23:24:56.039Z,3.33
2022-11-24T23:27:22.742Z,3.17
2022-11-24T23:29:49.225Z,3.63
2022-11-24T23:32:15.763Z,4.10
2022-11-24T23:34:42.473Z,3.40
2022-11-24T23:37:09.070Z,2.93
2022-11-24T23:39:35.647Z,3.33
2022-11-24T23:42:02.241Z,2.60
2022-11-24T23:44:28.797Z,3.30
2022-11-24T23:46:55.600Z,2.40
2022-11-24T23:49:22.176Z,2.77
2022-11-24T23:51:48.676Z,1.80
2022-11-24T23:54:15.151Z,2.60
2022-11-24T23:56:41.771Z,2.73
2022-11-24T23:59:10.652Z,3.00
